sensor_id;sensor_type;location;lat;lon;timestamp;P1;durP1;ratioP1;P2;durP2;ratioP2
17494;SDS011;8864;51.970;4.614;2022-12-24T00:01:34;14.68;;;3.10;;
17494;SDS011;8864;51.970;4.614;2022-12-24T00:04:09;13.30;;;3.05;;
17494;SDS011;8864;51.970;4.614;2022-12-24T00:06:39;14.48;;;2.60;;
17494;SDS011;8864;51.970;4.614;2022-12-24T00:09:09;11.65;;;2.35;;
17494;SDS011;8864;51.970;4.614;2022-12-24T00:11:39;17.48;;;2.88;;
17494;SDS011;8864;51.970;4.614;2022-12-24T00:14:06;14.63;;;2.38;;
17494;SDS011;8864;51.970;4.614;2022-12-24T00:16:37;15.48;;;2.92;;
17494;SDS011;8864;51.970;4.614;2022-12-24T00:19:04;16.20;;;2.40;;
17494;SDS011;8864;51.970;4.614;2022-12-24T00:21:34;12.80;;;2.78;;
17494;SDS011;8864;51.970;4.614;2022-12-24T00:24:26;12.10;;;2.30;;
17494;SDS011;8864;51.970;4.614;2022-12-24T00:26:56;13.07;;;3.03;;
17494;SDS011;8864;51.970;4.614;2022-12-24T00:29:37;15.48;;;2.78;;
17494;SDS011;8864;51.970;4.614;2022-12-24T00:32:04;10.52;;;2.50;;
17494;SDS011;8864;51.970;4.614;2022-12-24T00:34:36;13.52;;;2.42;;
17494;SDS011;8864;51.970;4.614;2022-12-24T00:37:13;8.82;;;2.35;;
17494;SDS011;8864;51.970;4.614;2022-12-24T00:39:47;15.02;;;2.92;;
17494;SDS011;8864;51.970;4.614;2022-12-24T00:42:25;10.23;;;2.40;;
17494;SDS011;8864;51.970;4.614;2022-12-24T00:44:55;11.75;;;2.63;;
17494;SDS011;8864;51.970;4.614;2022-12-24T00:47:25;11.57;;;2.30;;
17494;SDS011;8864;51.970;4.614;2022-12-24T00:50:06;16.98;;;2.85;;
17494;SDS011;8864;51.970;4.614;2022-12-24T00:52:38;11.27;;;2.55;;
17494;SDS011;8864;51.970;4.614;2022-12-24T00:55:08;20.00;;;2.80;;
17494;SDS011;8864;51.970;4.614;2022-12-24T00:57:48;13.10;;;3.10;;
17494;SDS011;8864;51.970;4.614;2022-12-24T01:00:54;17.17;;;3.38;;
17494;SDS011;8864;51.970;4.614;2022-12-24T01:03:25;14.00;;;2.95;;
17494;SDS011;8864;51.970;4.614;2022-12-24T01:06:06;16.67;;;3.15;;
17494;SDS011;8864;51.970;4.614;2022-12-24T01:08:39;11.80;;;2.53;;
17494;SDS011;8864;51.970;4.614;2022-12-24T01:11:15;18.13;;;2.72;;
17494;SDS011;8864;51.970;4.614;2022-12-24T01:13:49;13.98;;;2.72;;
17494;SDS011;8864;51.970;4.614;2022-12-24T01:16:19;11.65;;;2.45;;
17494;SDS011;8864;51.970;4.614;2022-12-24T01:18:49;17.63;;;2.83;;
17494;SDS011;8864;51.970;4.614;2022-12-24T01:21:16;17.90;;;3.10;;
17494;SDS011;8864;51.970;4.614;2022-12-24T01:23:45;14.73;;;2.92;;
17494;SDS011;8864;51.970;4.614;2022-12-24T01:26:13;16.50;;;2.92;;
17494;SDS011;8864;51.970;4.614;2022-12-24T01:28:44;12.07;;;2.42;;
17494;SDS011;8864;51.970;4.614;2022-12-24T01:31:12;15.50;;;2.75;;
17494;SDS011;8864;51.970;4.614;2022-12-24T01:33:42;10.38;;;2.28;;
17494;SDS011;8864;51.970;4.614;2022-12-24T01:36:18;15.43;;;3.00;;
17494;SDS011;8864;51.970;4.614;2022-12-24T01:38:56;12.05;;;2.53;;
17494;SDS011;8864;51.970;4.614;2022-12-24T01:41:26;12.65;;;2.95;;
17494;SDS011;8864;51.970;4.614;2022-12-24T01:44:17;15.38;;;3.13;;
17494;SDS011;8864;51.970;4.614;2022-12-24T01:46:54;16.35;;;3.42;;
17494;SDS011;8864;51.970;4.614;2022-12-24T01:49:31;13.40;;;2.90;;
17494;SDS011;8864;51.970;4.614;2022-12-24T01:51:59;14.75;;;2.55;;
17494;SDS011;8864;51.970;4.614;2022-12-24T01:54:36;11.25;;;2.25;;
17494;SDS011;8864;51.970;4.614;2022-12-24T01:57:12;12.73;;;2.70;;
17494;SDS011;8864;51.970;4.614;2022-12-24T01:59:49;18.27;;;2.97;;
17494;SDS011;8864;51.970;4.614;2022-12-24T02:02:23;10.80;;;2.25;;
17494;SDS011;8864;51.970;4.614;2022-12-24T02:04:55;16.75;;;2.78;;
17494;SDS011;8864;51.970;4.614;2022-12-24T02:07:28;15.10;;;2.80;;
17494;SDS011;8864;51.970;4.614;2022-12-24T02:09:59;10.73;;;2.80;;
17494;SDS011;8864;51.970;4.614;2022-12-24T02:12:31;13.95;;;2.50;;
17494;SDS011;8864;51.970;4.614;2022-12-24T02:15:08;15.52;;;2.60;;
17494;SDS011;8864;51.970;4.614;2022-12-24T02:17:39;11.20;;;2.63;;
17494;SDS011;8864;51.970;4.614;2022-12-24T02:23:31;10.52;;;2.05;;
17494;SDS011;8864;51.970;4.614;2022-12-24T02:29:26;12.77;;;2.80;;
17494;SDS011;8864;51.970;4.614;2022-12-24T02:32:18;13.32;;;2.58;;
17494;SDS011;8864;51.970;4.614;2022-12-24T02:34:55;10.02;;;2.42;;
17494;SDS011;8864;51.970;4.614;2022-12-24T02:37:30;13.52;;;2.90;;
17494;SDS011;8864;51.970;4.614;2022-12-24T02:40:05;10.38;;;2.50;;
17494;SDS011;8864;51.970;4.614;2022-12-24T02:42:43;11.40;;;2.65;;
17494;SDS011;8864;51.970;4.614;2022-12-24T02:45:17;16.45;;;3.17;;
17494;SDS011;8864;51.970;4.614;2022-12-24T02:47:50;13.65;;;2.17;;
17494;SDS011;8864;51.970;4.614;2022-12-24T02:50:22;12.80;;;2.53;;
17494;SDS011;8864;51.970;4.614;2022-12-24T02:52:51;12.57;;;2.60;;
17494;SDS011;8864;51.970;4.614;2022-12-24T02:55:32;12.05;;;2.47;;
17494;SDS011;8864;51.970;4.614;2022-12-24T02:58:19;10.77;;;2.35;;
17494;SDS011;8864;51.970;4.614;2022-12-24T03:00:58;14.07;;;2.58;;
17494;SDS011;8864;51.970;4.614;2022-12-24T03:06:39;12.32;;;2.40;;
17494;SDS011;8864;51.970;4.614;2022-12-24T03:09:23;11.95;;;3.00;;
17494;SDS011;8864;51.970;4.614;2022-12-24T03:11:56;13.75;;;2.65;;
17494;SDS011;8864;51.970;4.614;2022-12-24T03:14:32;9.75;;;2.55;;
17494;SDS011;8864;51.970;4.614;2022-12-24T03:17:04;18.35;;;2.90;;
17494;SDS011;8864;51.970;4.614;2022-12-24T03:19:50;15.00;;;2.70;;
17494;SDS011;8864;51.970;4.614;2022-12-24T03:22:23;12.88;;;2.50;;
17494;SDS011;8864;51.970;4.614;2022-12-24T03:24:52;11.52;;;2.50;;
17494;SDS011;8864;51.970;4.614;2022-12-24T03:27:41;11.88;;;2.75;;
17494;SDS011;8864;51.970;4.614;2022-12-24T03:30:10;12.55;;;2.78;;
17494;SDS011;8864;51.970;4.614;2022-12-24T03:32:42;18.13;;;2.45;;
17494;SDS011;8864;51.970;4.614;2022-12-24T03:35:13;12.43;;;2.67;;
17494;SDS011;8864;51.970;4.614;2022-12-24T03:37:44;12.98;;;2.38;;
17494;SDS011;8864;51.970;4.614;2022-12-24T03:40:33;12.45;;;2.70;;
17494;SDS011;8864;51.970;4.614;2022-12-24T03:43:00;19.80;;;2.85;;
17494;SDS011;8864;51.970;4.614;2022-12-24T03:45:29;20.05;;;4.05;;
17494;SDS011;8864;51.970;4.614;2022-12-24T03:48:01;12.60;;;3.00;;
17494;SDS011;8864;51.970;4.614;2022-12-24T03:50:41;12.90;;;2.97;;
17494;SDS011;8864;51.970;4.614;2022-12-24T03:53:31;10.98;;;2.90;;
17494;SDS011;8864;51.970;4.614;2022-12-24T03:56:00;12.68;;;3.05;;
17494;SDS011;8864;51.970;4.614;2022-12-24T03:58:41;16.27;;;2.70;;
17494;SDS011;8864;51.970;4.614;2022-12-24T04:01:09;15.93;;;3.00;;
17494;SDS011;8864;51.970;4.614;2022-12-24T04:03:44;18.83;;;2.90;;
17494;SDS011;8864;51.970;4.614;2022-12-24T04:08:59;18.70;;;2.75;;
17494;SDS011;8864;51.970;4.614;2022-12-24T04:11:29;15.15;;;3.03;;
17494;SDS011;8864;51.970;4.614;2022-12-24T04:13:58;16.67;;;2.60;;
17494;SDS011;8864;51.970;4.614;2022-12-24T04:16:31;16.38;;;2.60;;
17494;SDS011;8864;51.970;4.614;2022-12-24T04:18:59;13.88;;;2.30;;
17494;SDS011;8864;51.970;4.614;2022-12-24T04:21:27;12.35;;;2.92;;
17494;SDS011;8864;51.970;4.614;2022-12-24T04:23:59;12.73;;;2.72;;
17494;SDS011;8864;51.970;4.614;2022-12-24T04:26:27;15.13;;;2.88;;
17494;SDS011;8864;51.970;4.614;2022-12-24T04:29:00;16.17;;;2.70;;
17494;SDS011;8864;51.970;4.614;2022-12-24T04:31:29;15.80;;;2.47;;
17494;SDS011;8864;51.970;4.614;2022-12-24T04:33:59;11.73;;;2.30;;
17494;SDS011;8864;51.970;4.614;2022-12-24T04:36:26;13.00;;;2.30;;
17494;SDS011;8864;51.970;4.614;2022-12-24T04:38:56;15.00;;;2.92;;
17494;SDS011;8864;51.970;4.614;2022-12-24T04:41:31;14.02;;;2.42;;
17494;SDS011;8864;51.970;4.614;2022-12-24T04:43:58;11.90;;;2.40;;
17494;SDS011;8864;51.970;4.614;2022-12-24T04:46:27;13.65;;;2.50;;
17494;SDS011;8864;51.970;4.614;2022-12-24T04:48:56;14.00;;;2.30;;
17494;SDS011;8864;51.970;4.614;2022-12-24T04:51:26;16.15;;;2.45;;
17494;SDS011;8864;51.970;4.614;2022-12-24T04:53:55;10.23;;;2.30;;
17494;SDS011;8864;51.970;4.614;2022-12-24T04:56:25;13.52;;;2.80;;
17494;SDS011;8864;51.970;4.614;2022-12-24T04:58:59;13.68;;;2.63;;
17494;SDS011;8864;51.970;4.614;2022-12-24T05:01:32;15.95;;;2.53;;
17494;SDS011;8864;51.970;4.614;2022-12-24T05:03:59;12.15;;;2.50;;
17494;SDS011;8864;51.970;4.614;2022-12-24T05:06:28;12.55;;;2.30;;
17494;SDS011;8864;51.970;4.614;2022-12-24T05:09:02;7.85;;;2.10;;
17494;SDS011;8864;51.970;4.614;2022-12-24T05:11:53;13.27;;;2.47;;
17494;SDS011;8864;51.970;4.614;2022-12-24T05:14:21;11.20;;;2.40;;
17494;SDS011;8864;51.970;4.614;2022-12-24T05:16:58;11.73;;;2.75;;
17494;SDS011;8864;51.970;4.614;2022-12-24T05:19:34;9.95;;;2.22;;
17494;SDS011;8864;51.970;4.614;2022-12-24T05:22:08;13.73;;;2.20;;
17494;SDS011;8864;51.970;4.614;2022-12-24T05:24:53;12.73;;;2.47;;
17494;SDS011;8864;51.970;4.614;2022-12-24T05:27:47;13.80;;;2.65;;
17494;SDS011;8864;51.970;4.614;2022-12-24T05:30:14;14.20;;;2.58;;
17494;SDS011;8864;51.970;4.614;2022-12-24T05:32:46;13.48;;;2.58;;
17494;SDS011;8864;51.970;4.614;2022-12-24T05:35:14;14.10;;;2.53;;
17494;SDS011;8864;51.970;4.614;2022-12-24T05:37:47;11.45;;;2.60;;
17494;SDS011;8864;51.970;4.614;2022-12-24T05:40:22;11.75;;;2.70;;
17494;SDS011;8864;51.970;4.614;2022-12-24T05:42:52;12.77;;;2.67;;
17494;SDS011;8864;51.970;4.614;2022-12-24T05:45:20;13.45;;;2.65;;
17494;SDS011;8864;51.970;4.614;2022-12-24T05:47:50;11.45;;;2.78;;
17494;SDS011;8864;51.970;4.614;2022-12-24T05:50:17;15.07;;;2.97;;
17494;SDS011;8864;51.970;4.614;2022-12-24T05:52:47;12.27;;;2.45;;
17494;SDS011;8864;51.970;4.614;2022-12-24T05:55:15;11.10;;;2.50;;
17494;SDS011;8864;51.970;4.614;2022-12-24T05:57:43;13.07;;;2.90;;
17494;SDS011;8864;51.970;4.614;2022-12-24T06:00:12;11.68;;;2.45;;
17494;SDS011;8864;51.970;4.614;2022-12-24T06:02:42;16.58;;;2.58;;
17494;SDS011;8864;51.970;4.614;2022-12-24T06:05:24;14.60;;;3.15;;
17494;SDS011;8864;51.970;4.614;2022-12-24T06:07:51;17.23;;;2.95;;
17494;SDS011;8864;51.970;4.614;2022-12-24T06:10:22;11.68;;;2.90;;
17494;SDS011;8864;51.970;4.614;2022-12-24T06:12:56;19.80;;;3.10;;
17494;SDS011;8864;51.970;4.614;2022-12-24T06:15:25;14.73;;;3.03;;
17494;SDS011;8864;51.970;4.614;2022-12-24T06:17:53;16.83;;;3.42;;
17494;SDS011;8864;51.970;4.614;2022-12-24T06:20:24;15.55;;;3.05;;
17494;SDS011;8864;51.970;4.614;2022-12-24T06:23:07;23.77;;;3.58;;
17494;SDS011;8864;51.970;4.614;2022-12-24T06:25:38;18.98;;;3.25;;
17494;SDS011;8864;51.970;4.614;2022-12-24T06:28:15;23.60;;;3.70;;
17494;SDS011;8864;51.970;4.614;2022-12-24T06:30:48;15.68;;;3.25;;
17494;SDS011;8864;51.970;4.614;2022-12-24T06:33:16;14.57;;;2.90;;
17494;SDS011;8864;51.970;4.614;2022-12-24T06:35:48;15.50;;;2.97;;
17494;SDS011;8864;51.970;4.614;2022-12-24T06:38:19;15.63;;;3.38;;
17494;SDS011;8864;51.970;4.614;2022-12-24T06:41:09;18.35;;;3.08;;
17494;SDS011;8864;51.970;4.614;2022-12-24T06:43:37;23.25;;;3.97;;
17494;SDS011;8864;51.970;4.614;2022-12-24T06:46:06;22.58;;;3.15;;
17494;SDS011;8864;51.970;4.614;2022-12-24T06:48:33;16.10;;;3.10;;
17494;SDS011;8864;51.970;4.614;2022-12-24T06:51:04;17.80;;;3.47;;
17494;SDS011;8864;51.970;4.614;2022-12-24T06:53:33;20.90;;;4.18;;
17494;SDS011;8864;51.970;4.614;2022-12-24T06:56:01;15.65;;;2.97;;
17494;SDS011;8864;51.970;4.614;2022-12-24T06:58:31;19.63;;;3.20;;
17494;SDS011;8864;51.970;4.614;2022-12-24T07:01:05;24.95;;;3.67;;
17494;SDS011;8864;51.970;4.614;2022-12-24T07:03:54;14.55;;;3.38;;
17494;SDS011;8864;51.970;4.614;2022-12-24T07:06:23;17.65;;;3.65;;
17494;SDS011;8864;51.970;4.614;2022-12-24T07:08:55;16.67;;;3.15;;
17494;SDS011;8864;51.970;4.614;2022-12-24T07:11:26;17.48;;;3.45;;
17494;SDS011;8864;51.970;4.614;2022-12-24T07:13:58;17.17;;;3.40;;
17494;SDS011;8864;51.970;4.614;2022-12-24T07:16:34;18.35;;;3.83;;
17494;SDS011;8864;51.970;4.614;2022-12-24T07:19:07;19.75;;;3.30;;
17494;SDS011;8864;51.970;4.614;2022-12-24T07:21:36;18.33;;;3.22;;
17494;SDS011;8864;51.970;4.614;2022-12-24T07:24:06;19.45;;;3.90;;
17494;SDS011;8864;51.970;4.614;2022-12-24T07:26:37;20.33;;;3.88;;
17494;SDS011;8864;51.970;4.614;2022-12-24T07:29:06;16.10;;;3.10;;
17494;SDS011;8864;51.970;4.614;2022-12-24T07:31:34;20.00;;;4.53;;
17494;SDS011;8864;51.970;4.614;2022-12-24T07:34:10;34.42;;;5.57;;
17494;SDS011;8864;51.970;4.614;2022-12-24T07:36:37;41.22;;;6.70;;
17494;SDS011;8864;51.970;4.614;2022-12-24T07:39:22;33.47;;;6.25;;
17494;SDS011;8864;51.970;4.614;2022-12-24T07:41:57;38.65;;;6.70;;
17494;SDS011;8864;51.970;4.614;2022-12-24T07:44:32;35.38;;;5.55;;
17494;SDS011;8864;51.970;4.614;2022-12-24T07:47:00;42.53;;;7.60;;
17494;SDS011;8864;51.970;4.614;2022-12-24T07:49:36;108.70;;;18.70;;
17494;SDS011;8864;51.970;4.614;2022-12-24T07:52:04;56.30;;;10.27;;
17494;SDS011;8864;51.970;4.614;2022-12-24T07:54:37;55.80;;;10.00;;
17494;SDS011;8864;51.970;4.614;2022-12-24T07:57:04;60.38;;;9.93;;
17494;SDS011;8864;51.970;4.614;2022-12-24T07:59:34;55.25;;;10.15;;
17494;SDS011;8864;51.970;4.614;2022-12-24T08:02:07;50.80;;;9.30;;
17494;SDS011;8864;51.970;4.614;2022-12-24T08:04:39;100.78;;;15.35;;
17494;SDS011;8864;51.970;4.614;2022-12-24T08:07:19;75.13;;;12.73;;
17494;SDS011;8864;51.970;4.614;2022-12-24T08:09:53;59.70;;;9.80;;
17494;SDS011;8864;51.970;4.614;2022-12-24T08:12:22;57.22;;;9.55;;
17494;SDS011;8864;51.970;4.614;2022-12-24T08:14:50;56.90;;;11.43;;
17494;SDS011;8864;51.970;4.614;2022-12-24T08:17:26;56.50;;;10.52;;
17494;SDS011;8864;51.970;4.614;2022-12-24T08:20:04;51.92;;;8.80;;
17494;SDS011;8864;51.970;4.614;2022-12-24T08:22:46;48.47;;;7.75;;
17494;SDS011;8864;51.970;4.614;2022-12-24T08:25:16;39.63;;;7.40;;
17494;SDS011;8864;51.970;4.614;2022-12-24T08:27:45;53.40;;;8.90;;
17494;SDS011;8864;51.970;4.614;2022-12-24T08:30:15;50.03;;;8.75;;
17494;SDS011;8864;51.970;4.614;2022-12-24T08:32:42;32.40;;;7.13;;
17494;SDS011;8864;51.970;4.614;2022-12-24T08:35:15;44.72;;;8.57;;
17494;SDS011;8864;51.970;4.614;2022-12-24T08:37:43;35.88;;;6.72;;
17494;SDS011;8864;51.970;4.614;2022-12-24T08:40:11;40.50;;;6.47;;
17494;SDS011;8864;51.970;4.614;2022-12-24T08:42:41;32.95;;;5.47;;
17494;SDS011;8864;51.970;4.614;2022-12-24T08:45:08;32.00;;;5.93;;
17494;SDS011;8864;51.970;4.614;2022-12-24T08:47:38;36.00;;;5.97;;
17494;SDS011;8864;51.970;4.614;2022-12-24T08:50:07;30.38;;;5.43;;
17494;SDS011;8864;51.970;4.614;2022-12-24T08:52:37;25.05;;;5.20;;
17494;SDS011;8864;51.970;4.614;2022-12-24T08:55:07;28.05;;;5.63;;
17494;SDS011;8864;51.970;4.614;2022-12-24T08:57:36;26.75;;;5.38;;
17494;SDS011;8864;51.970;4.614;2022-12-24T09:00:07;25.80;;;5.13;;
17494;SDS011;8864;51.970;4.614;2022-12-24T09:02:36;25.65;;;5.22;;
17494;SDS011;8864;51.970;4.614;2022-12-24T09:05:03;31.60;;;5.40;;
17494;SDS011;8864;51.970;4.614;2022-12-24T09:07:32;20.38;;;4.38;;
17494;SDS011;8864;51.970;4.614;2022-12-24T09:10:00;26.40;;;4.95;;
17494;SDS011;8864;51.970;4.614;2022-12-24T09:12:29;23.17;;;4.30;;
17494;SDS011;8864;51.970;4.614;2022-12-24T09:14:56;23.13;;;5.05;;
17494;SDS011;8864;51.970;4.614;2022-12-24T09:17:24;18.27;;;4.07;;
17494;SDS011;8864;51.970;4.614;2022-12-24T09:19:51;24.35;;;4.93;;
17494;SDS011;8864;51.970;4.614;2022-12-24T09:22:18;19.83;;;4.03;;
17494;SDS011;8864;51.970;4.614;2022-12-24T09:24:46;24.33;;;4.80;;
17494;SDS011;8864;51.970;4.614;2022-12-24T09:27:18;22.25;;;4.13;;
17494;SDS011;8864;51.970;4.614;2022-12-24T09:29:48;24.88;;;4.38;;
17494;SDS011;8864;51.970;4.614;2022-12-24T09:32:18;18.75;;;3.80;;
17494;SDS011;8864;51.970;4.614;2022-12-24T09:34:51;23.05;;;3.90;;
17494;SDS011;8864;51.970;4.614;2022-12-24T09:37:19;28.02;;;4.85;;
17494;SDS011;8864;51.970;4.614;2022-12-24T09:39:46;24.17;;;4.07;;
17494;SDS011;8864;51.970;4.614;2022-12-24T09:42:16;24.08;;;5.05;;
17494;SDS011;8864;51.970;4.614;2022-12-24T09:44:57;22.05;;;4.22;;
17494;SDS011;8864;51.970;4.614;2022-12-24T09:47:30;16.10;;;3.58;;
17494;SDS011;8864;51.970;4.614;2022-12-24T09:50:04;24.55;;;4.10;;
17494;SDS011;8864;51.970;4.614;2022-12-24T09:52:47;23.15;;;4.55;;
17494;SDS011;8864;51.970;4.614;2022-12-24T09:55:19;18.73;;;3.55;;
17494;SDS011;8864;51.970;4.614;2022-12-24T09:57:55;16.27;;;3.67;;
17494;SDS011;8864;51.970;4.614;2022-12-24T10:00:28;17.67;;;3.88;;
17494;SDS011;8864;51.970;4.614;2022-12-24T10:02:57;19.30;;;4.05;;
17494;SDS011;8864;51.970;4.614;2022-12-24T10:05:28;13.57;;;3.28;;
17494;SDS011;8864;51.970;4.614;2022-12-24T10:08:04;20.02;;;3.80;;
17494;SDS011;8864;51.970;4.614;2022-12-24T10:10:50;23.38;;;4.35;;
17494;SDS011;8864;51.970;4.614;2022-12-24T10:13:24;23.92;;;3.97;;
17494;SDS011;8864;51.970;4.614;2022-12-24T10:16:07;18.70;;;4.10;;
17494;SDS011;8864;51.970;4.614;2022-12-24T10:18:47;17.77;;;3.25;;
17494;SDS011;8864;51.970;4.614;2022-12-24T10:21:29;17.52;;;3.50;;
17494;SDS011;8864;51.970;4.614;2022-12-24T10:24:09;17.63;;;3.25;;
17494;SDS011;8864;51.970;4.614;2022-12-24T10:26:43;21.42;;;3.47;;
17494;SDS011;8864;51.970;4.614;2022-12-24T10:29:23;22.95;;;3.90;;
17494;SDS011;8864;51.970;4.614;2022-12-24T10:31:59;14.27;;;3.65;;
17494;SDS011;8864;51.970;4.614;2022-12-24T10:34:45;21.88;;;4.10;;
17494;SDS011;8864;51.970;4.614;2022-12-24T10:37:28;25.35;;;4.22;;
17494;SDS011;8864;51.970;4.614;2022-12-24T10:39:58;20.35;;;4.00;;
17494;SDS011;8864;51.970;4.614;2022-12-24T10:42:32;15.52;;;3.40;;
17494;SDS011;8864;51.970;4.614;2022-12-24T10:45:12;25.20;;;3.47;;
17494;SDS011;8864;51.970;4.614;2022-12-24T10:47:44;16.13;;;2.58;;
17494;SDS011;8864;51.970;4.614;2022-12-24T10:50:15;18.40;;;3.35;;
17494;SDS011;8864;51.970;4.614;2022-12-24T10:52:51;18.45;;;3.55;;
17494;SDS011;8864;51.970;4.614;2022-12-24T10:55:27;18.65;;;3.28;;
17494;SDS011;8864;51.970;4.614;2022-12-24T10:58:02;17.80;;;3.45;;
17494;SDS011;8864;51.970;4.614;2022-12-24T11:00:37;12.50;;;3.10;;
17494;SDS011;8864;51.970;4.614;2022-12-24T11:03:20;14.27;;;2.90;;
17494;SDS011;8864;51.970;4.614;2022-12-24T11:06:11;16.85;;;2.95;;
17494;SDS011;8864;51.970;4.614;2022-12-24T11:08:41;18.58;;;3.17;;
17494;SDS011;8864;51.970;4.614;2022-12-24T11:11:12;19.42;;;3.50;;
17494;SDS011;8864;51.970;4.614;2022-12-24T11:13:45;17.92;;;3.17;;
17494;SDS011;8864;51.970;4.614;2022-12-24T11:16:37;14.65;;;2.75;;
17494;SDS011;8864;51.970;4.614;2022-12-24T11:19:13;14.82;;;3.08;;
17494;SDS011;8864;51.970;4.614;2022-12-24T11:21:45;15.73;;;2.72;;
17494;SDS011;8864;51.970;4.614;2022-12-24T11:24:20;15.25;;;3.28;;
17494;SDS011;8864;51.970;4.614;2022-12-24T11:26:53;19.42;;;3.28;;
17494;SDS011;8864;51.970;4.614;2022-12-24T11:29:42;18.40;;;3.20;;
17494;SDS011;8864;51.970;4.614;2022-12-24T11:32:15;16.83;;;3.13;;
17494;SDS011;8864;51.970;4.614;2022-12-24T11:34:45;13.02;;;3.10;;
17494;SDS011;8864;51.970;4.614;2022-12-24T11:37:13;17.77;;;3.50;;
17494;SDS011;8864;51.970;4.614;2022-12-24T11:39:49;19.42;;;3.08;;
17494;SDS011;8864;51.970;4.614;2022-12-24T11:42:24;19.75;;;3.67;;
17494;SDS011;8864;51.970;4.614;2022-12-24T11:44:53;16.20;;;3.05;;
17494;SDS011;8864;51.970;4.614;2022-12-24T11:47:34;17.55;;;3.70;;
17494;SDS011;8864;51.970;4.614;2022-12-24T11:50:21;24.85;;;2.65;;
17494;SDS011;8864;51.970;4.614;2022-12-24T11:52:58;19.30;;;3.40;;
17494;SDS011;8864;51.970;4.614;2022-12-24T11:55:41;16.55;;;2.60;;
17494;SDS011;8864;51.970;4.614;2022-12-24T11:58:15;25.23;;;3.67;;
17494;SDS011;8864;51.970;4.614;2022-12-24T12:00:56;14.43;;;3.45;;
17494;SDS011;8864;51.970;4.614;2022-12-24T12:03:34;22.05;;;3.13;;
17494;SDS011;8864;51.970;4.614;2022-12-24T12:06:09;9.70;;;2.75;;
17494;SDS011;8864;51.970;4.614;2022-12-24T12:08:46;14.80;;;2.72;;
17494;SDS011;8864;51.970;4.614;2022-12-24T12:11:20;14.27;;;2.78;;
17494;SDS011;8864;51.970;4.614;2022-12-24T12:13:56;18.55;;;3.03;;
17494;SDS011;8864;51.970;4.614;2022-12-24T12:16:34;15.50;;;2.83;;
17494;SDS011;8864;51.970;4.614;2022-12-24T12:19:46;14.25;;;2.63;;
17494;SDS011;8864;51.970;4.614;2022-12-24T12:22:21;12.80;;;2.47;;
17494;SDS011;8864;51.970;4.614;2022-12-24T12:24:55;12.40;;;2.83;;
17494;SDS011;8864;51.970;4.614;2022-12-24T12:27:30;12.13;;;2.85;;
17494;SDS011;8864;51.970;4.614;2022-12-24T12:30:03;12.00;;;2.15;;
17494;SDS011;8864;51.970;4.614;2022-12-24T12:32:37;12.82;;;2.38;;
17494;SDS011;8864;51.970;4.614;2022-12-24T12:35:20;17.40;;;3.25;;
17494;SDS011;8864;51.970;4.614;2022-12-24T12:37:54;11.88;;;2.70;;
17494;SDS011;8864;51.970;4.614;2022-12-24T12:43:54;14.48;;;3.17;;
17494;SDS011;8864;51.970;4.614;2022-12-24T12:46:52;24.90;;;3.05;;
17494;SDS011;8864;51.970;4.614;2022-12-24T12:49:38;16.13;;;2.78;;
17494;SDS011;8864;51.970;4.614;2022-12-24T12:52:21;15.80;;;2.90;;
17494;SDS011;8864;51.970;4.614;2022-12-24T12:55:17;15.68;;;2.63;;
17494;SDS011;8864;51.970;4.614;2022-12-24T12:58:05;13.80;;;2.70;;
17494;SDS011;8864;51.970;4.614;2022-12-24T13:00:57;15.38;;;2.45;;
17494;SDS011;8864;51.970;4.614;2022-12-24T13:03:42;15.75;;;3.00;;
17494;SDS011;8864;51.970;4.614;2022-12-24T13:06:38;15.90;;;2.40;;
17494;SDS011;8864;51.970;4.614;2022-12-24T13:09:32;15.40;;;3.10;;
17494;SDS011;8864;51.970;4.614;2022-12-24T13:12:35;16.27;;;3.20;;
17494;SDS011;8864;51.970;4.614;2022-12-24T13:15:28;16.58;;;2.90;;
17494;SDS011;8864;51.970;4.614;2022-12-24T13:21:13;11.73;;;2.90;;
17494;SDS011;8864;51.970;4.614;2022-12-24T13:23:46;15.45;;;2.92;;
17494;SDS011;8864;51.970;4.614;2022-12-24T13:26:24;11.38;;;2.40;;
17494;SDS011;8864;51.970;4.614;2022-12-24T13:29:00;13.98;;;3.03;;
17494;SDS011;8864;51.970;4.614;2022-12-24T13:35:36;17.90;;;2.25;;
17494;SDS011;8864;51.970;4.614;2022-12-24T13:41:47;13.25;;;2.67;;
17494;SDS011;8864;51.970;4.614;2022-12-24T13:44:19;16.25;;;2.95;;
17494;SDS011;8864;51.970;4.614;2022-12-24T13:47:19;16.58;;;2.60;;
17494;SDS011;8864;51.970;4.614;2022-12-24T13:49:51;15.15;;;2.78;;
17494;SDS011;8864;51.970;4.614;2022-12-24T13:52:29;16.13;;;2.88;;
17494;SDS011;8864;51.970;4.614;2022-12-24T13:55:04;15.40;;;2.90;;
17494;SDS011;8864;51.970;4.614;2022-12-24T13:57:42;16.83;;;3.05;;
17494;SDS011;8864;51.970;4.614;2022-12-24T14:03:21;15.77;;;3.40;;
17494;SDS011;8864;51.970;4.614;2022-12-24T14:06:00;19.80;;;2.80;;
17494;SDS011;8864;51.970;4.614;2022-12-24T14:08:32;17.17;;;2.92;;
17494;SDS011;8864;51.970;4.614;2022-12-24T14:11:05;16.55;;;2.63;;
17494;SDS011;8864;51.970;4.614;2022-12-24T14:16:47;17.10;;;3.08;;
17494;SDS011;8864;51.970;4.614;2022-12-24T14:19:18;15.77;;;2.83;;
17494;SDS011;8864;51.970;4.614;2022-12-24T14:25:00;12.85;;;2.30;;
17494;SDS011;8864;51.970;4.614;2022-12-24T14:27:33;14.50;;;2.75;;
17494;SDS011;8864;51.970;4.614;2022-12-24T14:30:25;8.23;;;2.10;;
17494;SDS011;8864;51.970;4.614;2022-12-24T14:33:25;16.17;;;2.88;;
17494;SDS011;8864;51.970;4.614;2022-12-24T14:36:06;12.77;;;2.35;;
17494;SDS011;8864;51.970;4.614;2022-12-24T14:38:41;13.38;;;2.35;;
17494;SDS011;8864;51.970;4.614;2022-12-24T14:44:20;10.85;;;2.20;;
17494;SDS011;8864;51.970;4.614;2022-12-24T14:47:16;10.60;;;2.47;;
17494;SDS011;8864;51.970;4.614;2022-12-24T14:50:24;10.70;;;2.38;;
17494;SDS011;8864;51.970;4.614;2022-12-24T14:53:20;9.70;;;2.42;;
17494;SDS011;8864;51.970;4.614;2022-12-24T14:56:00;10.88;;;1.95;;
17494;SDS011;8864;51.970;4.614;2022-12-24T14:58:48;11.95;;;2.13;;
17494;SDS011;8864;51.970;4.614;2022-12-24T15:01:31;8.38;;;2.20;;
17494;SDS011;8864;51.970;4.614;2022-12-24T15:04:13;9.35;;;1.98;;
17494;SDS011;8864;51.970;4.614;2022-12-24T15:06:44;8.77;;;2.22;;
17494;SDS011;8864;51.970;4.614;2022-12-24T15:09:16;5.05;;;1.70;;
17494;SDS011;8864;51.970;4.614;2022-12-24T15:11:54;9.30;;;1.75;;
17494;SDS011;8864;51.970;4.614;2022-12-24T15:14:27;7.78;;;2.08;;
17494;SDS011;8864;51.970;4.614;2022-12-24T15:17:06;8.85;;;1.98;;
17494;SDS011;8864;51.970;4.614;2022-12-24T15:19:46;8.18;;;1.98;;
17494;SDS011;8864;51.970;4.614;2022-12-24T15:22:21;7.88;;;1.95;;
17494;SDS011;8864;51.970;4.614;2022-12-24T15:24:52;6.25;;;1.75;;
17494;SDS011;8864;51.970;4.614;2022-12-24T15:27:31;6.78;;;2.28;;
17494;SDS011;8864;51.970;4.614;2022-12-24T15:30:10;6.35;;;1.73;;
17494;SDS011;8864;51.970;4.614;2022-12-24T15:32:43;6.32;;;1.85;;
17494;SDS011;8864;51.970;4.614;2022-12-24T15:38:28;8.38;;;2.05;;
17494;SDS011;8864;51.970;4.614;2022-12-24T15:41:03;6.35;;;1.90;;
17494;SDS011;8864;51.970;4.614;2022-12-24T15:43:38;6.40;;;1.58;;
17494;SDS011;8864;51.970;4.614;2022-12-24T15:46:16;6.15;;;1.50;;
17494;SDS011;8864;51.970;4.614;2022-12-24T15:48:47;8.23;;;2.08;;
17494;SDS011;8864;51.970;4.614;2022-12-24T15:51:27;5.38;;;1.60;;
17494;SDS011;8864;51.970;4.614;2022-12-24T15:54:04;6.38;;;1.73;;
17494;SDS011;8864;51.970;4.614;2022-12-24T15:56:40;9.27;;;1.80;;
17494;SDS011;8864;51.970;4.614;2022-12-24T16:08:20;6.47;;;1.83;;
17494;SDS011;8864;51.970;4.614;2022-12-24T16:11:08;6.82;;;1.85;;
17494;SDS011;8864;51.970;4.614;2022-12-24T16:13:50;9.15;;;2.00;;
17494;SDS011;8864;51.970;4.614;2022-12-24T16:16:51;5.55;;;1.77;;
17494;SDS011;8864;51.970;4.614;2022-12-24T16:19:27;5.10;;;1.38;;
17494;SDS011;8864;51.970;4.614;2022-12-24T16:21:58;7.00;;;1.60;;
17494;SDS011;8864;51.970;4.614;2022-12-24T16:24:59;7.10;;;1.40;;
17494;SDS011;8864;51.970;4.614;2022-12-24T16:27:41;6.15;;;1.85;;